createdAt,value
2023-07-21T00:00:02.409Z,12.07
2023-07-21T00:02:29.209Z,10.20
2023-07-21T00:04:56.265Z,10.32
2023-07-21T00:07:26.048Z,11.88
2023-07-21T00:09:53.452Z,13.13
2023-07-21T00:12:20.188Z,11.43
2023-07-21T00:14:46.774Z,13.75
2023-07-21T00:17:13.395Z,12.45
2023-07-21T00:19:40.048Z,10.45
2023-07-21T00:22:07.100Z,9.68
2023-07-21T00:24:34.138Z,11.23
2023-07-21T00:27:03.063Z,12.68
2023-07-21T00:29:30.700Z,11.35
2023-07-21T00:31:57.387Z,11.23
2023-07-21T00:34:26.041Z,10.85
2023-07-21T00:36:57.144Z,10.50
2023-07-21T00:39:24.055Z,9.13
2023-07-21T00:41:50.810Z,9.55
2023-07-21T00:44:17.655Z,11.82
2023-07-21T00:46:44.683Z,11.38
2023-07-21T00:49:11.636Z,14.32
2023-07-21T00:51:38.728Z,8.57
2023-07-21T00:54:05.537Z,13.05
2023-07-21T00:56:33.291Z,13.52
2023-07-21T00:59:01.516Z,12.20
2023-07-21T01:01:28.481Z,15.00
2023-07-21T01:03:56.045Z,15.95
2023-07-21T01:06:27.594Z,14.18
2023-07-21T01:08:58.113Z,11.00
2023-07-21T01:11:26.552Z,16.20
2023-07-21T01:13:55.462Z,10.40
2023-07-21T01:16:24.964Z,12.65
2023-07-21T01:18:54.577Z,13.63
2023-07-21T01:21:35.587Z,15.55
2023-07-21T01:24:09.482Z,16.63
2023-07-21T01:26:38.413Z,17.10
2023-07-21T01:29:07.013Z,17.40
2023-07-21T01:31:36.331Z,12.15
2023-07-21T01:34:05.017Z,16.00
2023-07-21T01:36:32.164Z,12.73
2023-07-21T01:39:00.239Z,11.48
2023-07-21T01:41:27.753Z,12.15
2023-07-21T01:43:54.730Z,10.50
2023-07-21T01:46:21.597Z,12.85
2023-07-21T01:48:49.341Z,13.13
2023-07-21T01:51:19.850Z,14.93
2023-07-21T01:53:53.079Z,13.25
2023-07-21T01:56:29.891Z,11.35
2023-07-21T01:59:00.806Z,11.57
2023-07-21T02:01:29.674Z,13.68
2023-07-21T02:03:57.296Z,13.77
2023-07-21T02:06:24.245Z,13.35
2023-07-21T02:08:51.259Z,15.18
2023-07-21T02:11:21.453Z,15.25
2023-07-21T02:13:48.439Z,13.45
2023-07-21T02:16:15.259Z,13.75
2023-07-21T02:18:43.599Z,14.20
2023-07-21T02:21:10.367Z,12.25
2023-07-21T02:23:37.161Z,14.70
2023-07-21T02:26:04.036Z,14.40
2023-07-21T02:28:30.741Z,14.23
2023-07-21T02:31:03.393Z,13.90
2023-07-21T02:33:32.457Z,15.52
2023-07-21T02:36:01.042Z,14.50
2023-07-21T02:38:28.232Z,13.20
2023-07-21T02:40:55.547Z,15.77
2023-07-21T02:43:23.889Z,17.02
2023-07-21T02:45:52.716Z,13.60
2023-07-21T02:48:19.734Z,14.57
2023-07-21T02:50:50.530Z,13.13
2023-07-21T02:53:18.002Z,19.30
2023-07-21T02:55:45.410Z,13.70
2023-07-21T02:58:14.145Z,13.73
2023-07-21T03:00:43.151Z,14.02
2023-07-21T03:03:19.334Z,16.63
2023-07-21T03:05:46.562Z,15.77
2023-07-21T03:08:15.751Z,13.35
2023-07-21T03:10:42.755Z,16.08
2023-07-21T03:13:09.349Z,14.55
2023-07-21T03:15:35.972Z,13.23
2023-07-21T03:18:02.793Z,15.07
2023-07-21T03:20:29.700Z,13.05
2023-07-21T03:22:56.317Z,12.60
2023-07-21T03:25:22.878Z,16.13
2023-07-21T03:27:49.643Z,15.52
2023-07-21T03:30:16.299Z,12.65
2023-07-21T03:32:46.919Z,15.05
2023-07-21T03:35:13.920Z,13.88
2023-07-21T03:37:40.735Z,12.43
2023-07-21T03:40:08.877Z,11.95
2023-07-21T03:42:36.233Z,14.35
2023-07-21T03:45:08.158Z,12.27
2023-07-21T03:47:36.144Z,11.75
2023-07-21T03:50:03.446Z,13.73
2023-07-21T03:52:30.447Z,15.32
2023-07-21T03:54:57.349Z,14.20
2023-07-21T03:57:24.202Z,12.90
2023-07-21T03:59:51.063Z,14.00
2023-07-21T04:02:18.850Z,13.68
2023-07-21T04:04:46.686Z,13.40
2023-07-21T04:07:14.142Z,12.07
2023-07-21T04:09:41.177Z,14.18
2023-07-21T04:12:08.426Z,13.57
2023-07-21T04:14:35.579Z,16.17
2023-07-21T04:17:02.309Z,16.85
2023-07-21T04:19:29.080Z,27.00
2023-07-21T04:21:55.954Z,16.13
2023-07-21T04:24:22.728Z,12.80
2023-07-21T04:26:49.443Z,12.65
2023-07-21T04:29:29.876Z,14.07
2023-07-21T04:32:02.580Z,12.95
2023-07-21T04:34:29.268Z,14.45
2023-07-21T04:36:55.842Z,14.07
2023-07-21T04:39:22.589Z,12.20
2023-07-21T04:41:49.208Z,15.00
2023-07-21T04:44:17.018Z,15.68
2023-07-21T04:46:43.710Z,14.00
2023-07-21T04:49:10.823Z,12.48
2023-07-21T04:51:37.453Z,14.88
2023-07-21T04:54:04.732Z,12.80
2023-07-21T04:56:31.639Z,11.27
2023-07-21T04:58:58.375Z,13.93
2023-07-21T05:01:25.402Z,13.13
2023-07-21T05:03:52.196Z,14.23
2023-07-21T05:06:18.922Z,13.85
2023-07-21T05:08:45.819Z,13.13
2023-07-21T05:11:12.488Z,18.33
2023-07-21T05:13:39.246Z,13.98
2023-07-21T05:16:05.969Z,14.60
2023-07-21T05:18:32.723Z,16.65
2023-07-21T05:20:59.793Z,15.40
2023-07-21T05:23:26.406Z,16.48
2023-07-21T05:26:01.781Z,16.40
2023-07-21T05:28:30.368Z,15.18
2023-07-21T05:30:58.369Z,15.02
2023-07-21T05:33:25.237Z,14.65
2023-07-21T05:35:51.790Z,14.88
2023-07-21T05:38:18.375Z,15.38
2023-07-21T05:40:45.054Z,15.88
2023-07-21T05:43:11.660Z,12.18
2023-07-21T05:45:39.751Z,13.90
2023-07-21T05:48:06.957Z,13.15
2023-07-21T05:50:38.515Z,14.02
2023-07-21T05:53:05.738Z,15.48
2023-07-21T05:55:32.385Z,13.68
2023-07-21T05:57:59.112Z,11.95
2023-07-21T06:00:26.676Z,13.15
2023-07-21T06:02:53.576Z,14.30
2023-07-21T06:05:20.458Z,12.50
2023-07-21T06:07:47.458Z,12.82
2023-07-21T06:10:14.444Z,11.20
2023-07-21T06:12:41.362Z,12.30
2023-07-21T06:15:09.347Z,13.23
2023-07-21T06:17:36.064Z,14.90
2023-07-21T06:20:02.802Z,12.80
2023-07-21T06:22:29.865Z,10.57
2023-07-21T06:24:56.635Z,11.98
2023-07-21T06:27:23.388Z,10.90
2023-07-21T06:29:50.083Z,11.57
2023-07-21T06:32:16.853Z,12.00
2023-07-21T06:34:43.615Z,13.45
2023-07-21T06:37:10.196Z,11.88
2023-07-21T06:39:36.863Z,12.85
2023-07-21T06:42:05.485Z,9.55
2023-07-21T06:44:32.970Z,12.63
2023-07-21T06:46:59.578Z,13.35
2023-07-21T06:49:26.385Z,12.88
2023-07-21T06:51:53.664Z,12.90
2023-07-21T06:54:20.356Z,11.93
2023-07-21T06:56:49.699Z,13.82
2023-07-21T06:59:16.733Z,12.68
2023-07-21T07:01:43.846Z,10.52
2023-07-21T07:04:10.719Z,11.15
2023-07-21T07:06:37.592Z,10.23
2023-07-21T07:09:04.316Z,12.07
2023-07-21T07:11:31.459Z,13.00
2023-07-21T07:13:58.105Z,12.05
2023-07-21T07:16:24.791Z,11.43
2023-07-21T07:18:51.397Z,10.65
2023-07-21T07:21:18.482Z,12.10
2023-07-21T07:23:45.122Z,10.27
2023-07-21T07:26:11.886Z,10.05
2023-07-21T07:28:40.029Z,10.73
2023-07-21T07:31:07.828Z,12.38
2023-07-21T07:33:34.730Z,10.15
2023-07-21T07:36:01.760Z,10.05
2023-07-21T07:38:29.938Z,10.35
2023-07-21T07:41:06.710Z,11.60
2023-07-21T07:43:34.274Z,12.27
2023-07-21T07:46:02.169Z,11.82
2023-07-21T07:48:29.404Z,10.45
2023-07-21T07:50:56.219Z,10.23
2023-07-21T07:53:23.305Z,9.25
2023-07-21T07:55:50.374Z,9.68
2023-07-21T07:58:17.048Z,9.68
2023-07-21T08:00:44.408Z,11.65
2023-07-21T08:03:11.706Z,13.93
2023-07-21T08:05:40.479Z,10.50
2023-07-21T08:08:09.397Z,8.18
2023-07-21T08:10:39.980Z,11.40
2023-07-21T08:13:07.261Z,8.27
2023-07-21T08:15:34.280Z,10.00
2023-07-21T08:18:01.002Z,10.13
2023-07-21T08:20:27.697Z,9.45
2023-07-21T08:22:54.364Z,10.40
2023-07-21T08:25:21.707Z,8.82
2023-07-21T08:27:49.534Z,9.40
2023-07-21T08:30:17.899Z,9.32
2023-07-21T08:32:44.588Z,9.60
2023-07-21T08:35:11.768Z,10.00
2023-07-21T08:37:40.176Z,8.75
2023-07-21T08:40:08.479Z,6.93
2023-07-21T08:42:36.479Z,9.18
2023-07-21T08:45:06.587Z,9.68
2023-07-21T08:47:34.144Z,9.38
2023-07-21T08:50:00.982Z,6.95
2023-07-21T08:52:27.762Z,6.88
2023-07-21T08:54:55.411Z,7.47
2023-07-21T08:57:22.453Z,7.75
2023-07-21T08:59:50.927Z,7.43
2023-07-21T09:02:17.541Z,6.28
2023-07-21T09:04:45.536Z,7.20
2023-07-21T09:07:12.568Z,6.53
2023-07-21T09:09:39.282Z,6.55
2023-07-21T09:12:10.762Z,5.78
2023-07-21T09:17:14.297Z,6.55
2023-07-21T09:19:43.780Z,6.00
2023-07-21T09:22:13.013Z,4.60
2023-07-21T09:24:51.008Z,5.22
2023-07-21T09:27:19.820Z,5.70
2023-07-21T09:29:47.139Z,6.75
2023-07-21T09:32:19.359Z,7.45
2023-07-21T09:37:39.374Z,6.72
2023-07-21T09:40:10.695Z,4.40
2023-07-21T09:42:39.188Z,4.93
2023-07-21T09:45:06.801Z,5.72
2023-07-21T09:47:33.688Z,5.10
2023-07-21T09:50:00.499Z,4.05
2023-07-21T09:52:28.674Z,4.72
2023-07-21T09:57:36.358Z,4.97
2023-07-21T10:00:11.032Z,7.15
2023-07-21T10:02:38.012Z,4.28
2023-07-21T10:05:06.112Z,5.45
2023-07-21T10:07:34.279Z,4.15
2023-07-21T10:10:02.796Z,5.25
2023-07-21T10:12:42.743Z,7.20
2023-07-21T10:15:23.231Z,5.50
2023-07-21T10:17:59.265Z,6.53
2023-07-21T10:23:24.558Z,6.80
2023-07-21T10:28:46.193Z,4.15
2023-07-21T10:34:25.900Z,3.53
2023-07-21T10:39:32.280Z,3.75
2023-07-21T10:42:02.280Z,5.70
2023-07-21T10:44:49.022Z,4.82
2023-07-21T10:47:18.506Z,4.45
2023-07-21T10:52:12.714Z,6.20
2023-07-21T10:54:40.139Z,8.23
2023-07-21T10:57:08.232Z,7.38
2023-07-21T10:59:37.955Z,7.55
2023-07-21T11:02:08.393Z,6.85
2023-07-21T11:04:37.238Z,8.77
2023-07-21T11:07:04.440Z,7.93
2023-07-21T11:09:38.963Z,8.23
2023-07-21T11:12:06.144Z,6.07
2023-07-21T11:14:32.952Z,6.43
2023-07-21T11:17:03.525Z,8.40
2023-07-21T11:19:32.829Z,5.15
2023-07-21T11:22:00.533Z,6.10
2023-07-21T11:24:31.025Z,6.72
2023-07-21T11:27:05.681Z,4.78
2023-07-21T11:29:36.125Z,5.78
2023-07-21T11:32:16.235Z,3.63
2023-07-21T11:34:43.079Z,3.20
2023-07-21T11:37:10.432Z,3.88
2023-07-21T11:39:37.938Z,4.80
2023-07-21T11:42:04.952Z,3.75
2023-07-21T11:44:33.477Z,3.33
2023-07-21T11:47:08.522Z,4.40
2023-07-21T11:52:27.300Z,4.70
2023-07-21T11:54:55.219Z,5.38
2023-07-21T11:57:22.090Z,5.63
2023-07-21T11:59:48.813Z,4.72
2023-07-21T12:02:18.265Z,5.28
2023-07-21T12:07:11.824Z,8.40
2023-07-21T12:09:39.583Z,5.80
2023-07-21T12:12:08.899Z,4.53
2023-07-21T12:14:35.778Z,4.20
2023-07-21T12:17:02.622Z,4.88
2023-07-21T12:19:29.243Z,3.55
2023-07-21T12:21:56.710Z,5.28
2023-07-21T12:24:23.783Z,4.72
2023-07-21T12:26:50.482Z,5.15
2023-07-21T12:29:33.217Z,5.03
2023-07-21T12:32:05.314Z,6.43
2023-07-21T12:34:32.022Z,4.90
2023-07-21T12:36:59.450Z,6.18
2023-07-21T12:39:26.120Z,6.15
2023-07-21T12:41:53.910Z,5.25
2023-07-21T12:44:23.123Z,7.55
2023-07-21T12:46:49.948Z,9.13
2023-07-21T12:49:16.628Z,4.38
2023-07-21T12:51:45.098Z,3.67
2023-07-21T12:54:11.942Z,5.28
2023-07-21T12:56:39.135Z,5.13
2023-07-21T12:59:06.720Z,8.65
2023-07-21T13:01:33.657Z,5.85
2023-07-21T13:04:00.682Z,7.25
2023-07-21T13:06:28.746Z,6.18
2023-07-21T13:08:56.327Z,6.65
2023-07-21T13:11:23.038Z,5.53
2023-07-21T13:13:52.856Z,6.38
2023-07-21T13:16:20.082Z,5.03
2023-07-21T13:18:48.049Z,5.85
2023-07-21T13:21:15.292Z,5.55
2023-07-21T13:23:42.491Z,4.00
2023-07-21T13:26:09.304Z,5.10
2023-07-21T13:28:35.906Z,5.13
2023-07-21T13:31:02.684Z,4.78
2023-07-21T13:33:29.427Z,4.00
2023-07-21T13:35:56.036Z,8.25
2023-07-21T13:38:23.653Z,4.65
2023-07-21T13:40:50.624Z,5.68
2023-07-21T13:43:17.207Z,7.07
2023-07-21T13:45:43.848Z,3.85
2023-07-21T13:48:13.479Z,5.78
2023-07-21T13:50:41.370Z,4.72
2023-07-21T13:53:07.991Z,7.03
2023-07-21T13:55:34.863Z,4.72
2023-07-21T13:58:01.673Z,5.43
2023-07-21T14:00:30.893Z,6.50
2023-07-21T14:02:57.938Z,5.82
2023-07-21T14:05:25.692Z,6.05
2023-07-21T14:07:52.888Z,4.43
2023-07-21T14:10:19.683Z,3.30
2023-07-21T14:12:47.328Z,3.47
2023-07-21T14:15:14.296Z,4.05
2023-07-21T14:17:41.432Z,3.33
2023-07-21T14:20:11.234Z,4.05
2023-07-21T14:22:38.925Z,4.13
2023-07-21T14:25:06.323Z,4.07
2023-07-21T14:27:33.029Z,3.90
2023-07-21T14:29:59.724Z,3.58
2023-07-21T14:32:26.498Z,3.47
2023-07-21T14:34:53.164Z,2.67
2023-07-21T14:37:20.696Z,3.72
2023-07-21T14:39:48.055Z,4.20
2023-07-21T14:42:16.164Z,4.25
2023-07-21T14:44:42.933Z,3.72
2023-07-21T14:47:10.259Z,3.05
2023-07-21T14:49:37.009Z,3.83
2023-07-21T14:52:04.524Z,4.50
2023-07-21T14:54:31.494Z,3.65
2023-07-21T14:56:58.293Z,3.00
2023-07-21T14:59:24.945Z,3.28
2023-07-21T15:01:51.664Z,4.00
2023-07-21T15:04:19.544Z,4.47
2023-07-21T15:06:46.432Z,3.28
2023-07-21T15:09:14.137Z,2.42
2023-07-21T15:11:40.765Z,3.75
2023-07-21T15:14:07.694Z,4.13
2023-07-21T15:16:34.389Z,5.57
2023-07-21T15:19:01.107Z,3.03
2023-07-21T15:21:27.732Z,2.90
2023-07-21T15:23:54.329Z,3.05
2023-07-21T15:26:21.056Z,3.30
2023-07-21T15:28:48.144Z,3.75
2023-07-21T15:31:14.883Z,4.30
2023-07-21T15:33:43.096Z,4.53
2023-07-21T15:36:10.032Z,5.80
2023-07-21T15:38:36.786Z,2.90
2023-07-21T15:41:03.359Z,3.50
2023-07-21T15:43:29.968Z,2.95
2023-07-21T15:45:56.637Z,3.88
2023-07-21T15:48:23.438Z,3.30
2023-07-21T15:50:50.297Z,3.40
2023-07-21T15:53:16.946Z,4.05
2023-07-21T15:55:44.183Z,3.72
2023-07-21T15:58:11.921Z,3.60
2023-07-21T16:00:38.593Z,3.85
2023-07-21T16:03:05.968Z,3.30
2023-07-21T16:05:33.294Z,3.22
2023-07-21T16:08:00.136Z,3.25
2023-07-21T16:10:26.787Z,3.47
2023-07-21T16:12:53.455Z,2.85
2023-07-21T16:15:20.371Z,3.75
2023-07-21T16:17:48.132Z,3.00
2023-07-21T16:20:15.243Z,4.07
2023-07-21T16:22:42.119Z,2.60
2023-07-21T16:25:09.878Z,4.88
2023-07-21T16:27:36.691Z,2.97
2023-07-21T16:30:03.562Z,2.72
2023-07-21T16:32:30.288Z,2.97
2023-07-21T16:34:57.116Z,2.70
2023-07-21T16:37:23.798Z,2.38
2023-07-21T16:39:54.359Z,6.15
2023-07-21T16:42:21.177Z,4.10
2023-07-21T16:44:47.925Z,4.18
2023-07-21T16:47:14.688Z,6.60
2023-07-21T16:49:41.982Z,6.50
2023-07-21T16:52:08.934Z,2.53
2023-07-21T16:54:35.575Z,4.32
2023-07-21T16:57:02.223Z,2.63
2023-07-21T16:59:32.176Z,3.30
2023-07-21T17:02:01.350Z,7.68
2023-07-21T17:04:33.128Z,14.48
2023-07-21T17:07:00.467Z,10.85
2023-07-21T17:09:27.053Z,5.93
2023-07-21T17:11:53.805Z,9.02
2023-07-21T17:14:20.457Z,7.03
2023-07-21T17:16:47.743Z,4.22
2023-07-21T17:19:14.856Z,5.82
2023-07-21T17:21:44.022Z,2.88
2023-07-21T17:26:37.693Z,2.33
2023-07-21T17:29:04.483Z,2.75
2023-07-21T17:31:31.198Z,3.70
2023-07-21T17:33:57.824Z,3.05
2023-07-21T17:36:24.735Z,2.42
2023-07-21T17:38:51.376Z,2.58
2023-07-21T17:41:18.213Z,1.73
2023-07-21T17:43:44.848Z,7.05
2023-07-21T17:46:11.734Z,3.00
2023-07-21T17:48:38.437Z,3.05
2023-07-21T17:51:05.165Z,2.35
2023-07-21T17:53:31.799Z,5.13
2023-07-21T17:55:58.446Z,2.97
2023-07-21T17:58:25.134Z,3.85
2023-07-21T18:00:51.911Z,3.10
2023-07-21T18:03:20.032Z,5.40
2023-07-21T18:05:47.840Z,3.15
2023-07-21T18:08:14.777Z,2.33
2023-07-21T18:10:41.588Z,3.10
2023-07-21T18:13:08.231Z,2.92
2023-07-21T18:15:36.611Z,2.75
2023-07-21T18:18:04.569Z,5.43
2023-07-21T18:20:35.458Z,3.75
2023-07-21T18:23:03.543Z,3.05
2023-07-21T18:25:30.765Z,2.75
2023-07-21T18:27:57.663Z,4.60
2023-07-21T18:30:24.442Z,3.03
2023-07-21T18:32:52.124Z,2.83
2023-07-21T18:35:20.754Z,3.92
2023-07-21T18:37:49.663Z,3.88
2023-07-21T18:40:16.883Z,2.88
2023-07-21T18:42:50.334Z,3.38
2023-07-21T18:45:19.623Z,4.75
2023-07-21T18:47:46.620Z,5.88
2023-07-21T18:50:13.622Z,7.30
2023-07-21T18:52:40.213Z,4.93
2023-07-21T18:55:07.516Z,3.65
2023-07-21T18:57:34.084Z,5.22
2023-07-21T19:00:00.765Z,4.03
2023-07-21T19:02:27.422Z,7.45
2023-07-21T19:04:54.285Z,3.58
2023-07-21T19:07:20.918Z,4.18
2023-07-21T19:09:48.244Z,4.30
2023-07-21T19:12:14.830Z,3.83
2023-07-21T19:14:43.757Z,5.00
2023-07-21T19:17:10.360Z,3.45
2023-07-21T19:19:37.058Z,2.60
2023-07-21T19:22:04.146Z,2.28
2023-07-21T19:24:31.388Z,3.17
2023-07-21T19:26:58.374Z,3.55
2023-07-21T19:29:25.470Z,2.47
2023-07-21T19:31:53.442Z,2.13
2023-07-21T19:34:20.122Z,2.88
2023-07-21T19:36:46.932Z,2.72
2023-07-21T19:39:13.961Z,2.55
2023-07-21T19:41:40.762Z,3.05
2023-07-21T19:44:07.413Z,2.78
2023-07-21T19:46:36.436Z,1.98
2023-07-21T19:49:05.507Z,2.17
2023-07-21T19:51:32.425Z,2.70
2023-07-21T19:53:59.323Z,2.75
2023-07-21T19:56:26.448Z,2.42
2023-07-21T19:58:53.107Z,3.30
2023-07-21T20:01:19.671Z,2.97
2023-07-21T20:03:46.540Z,3.03
2023-07-21T20:06:13.245Z,3.10
2023-07-21T20:08:40.435Z,3.22
2023-07-21T20:11:07.198Z,3.72
2023-07-21T20:13:34.246Z,2.15
2023-07-21T20:16:01.119Z,3.88
2023-07-21T20:18:28.073Z,3.20
2023-07-21T20:20:54.779Z,2.35
2023-07-21T20:23:21.586Z,3.63
2023-07-21T20:25:48.187Z,3.90
2023-07-21T20:28:17.777Z,2.65
2023-07-21T20:30:45.287Z,3.08
2023-07-21T20:33:13.697Z,2.80
2023-07-21T20:35:42.736Z,3.05
2023-07-21T20:38:09.980Z,1.80
2023-07-21T20:40:36.941Z,2.05
2023-07-21T20:43:04.485Z,2.22
2023-07-21T20:45:32.248Z,2.38
2023-07-21T20:47:59.261Z,2.30
2023-07-21T20:50:25.904Z,2.35
2023-07-21T20:52:52.528Z,2.25
2023-07-21T20:55:19.417Z,2.70
2023-07-21T20:57:46.212Z,2.50
2023-07-21T21:00:14.371Z,4.28
2023-07-21T21:02:43.896Z,3.38
2023-07-21T21:05:12.823Z,6.72
2023-07-21T21:07:40.757Z,3.75
2023-07-21T21:10:08.120Z,4.63
2023-07-21T21:12:35.501Z,3.60
2023-07-21T21:15:03.448Z,3.97
2023-07-21T21:17:31.916Z,3.75
2023-07-21T21:19:58.790Z,4.25
2023-07-21T21:22:25.656Z,3.47
2023-07-21T21:24:53.440Z,6.00
2023-07-21T21:27:20.228Z,4.13
2023-07-21T21:29:46.905Z,5.00
2023-07-21T21:32:13.592Z,5.20
2023-07-21T21:34:40.270Z,3.90
2023-07-21T21:37:07.645Z,2.67
2023-07-21T21:39:34.705Z,2.47
2023-07-21T21:42:01.268Z,3.90
2023-07-21T21:44:28.270Z,3.05
2023-07-21T21:46:54.972Z,2.22
2023-07-21T21:49:21.585Z,1.42
2023-07-21T21:51:48.284Z,3.38
2023-07-21T21:54:14.863Z,4.47
2023-07-21T21:56:41.491Z,3.55
2023-07-21T21:59:08.451Z,2.72
2023-07-21T22:01:35.215Z,2.55
2023-07-21T22:04:02.062Z,4.35
2023-07-21T22:06:29.134Z,4.13
2023-07-21T22:08:56.321Z,3.15
2023-07-21T22:11:23.170Z,4.25
2023-07-21T22:13:49.751Z,5.38
2023-07-21T22:16:16.566Z,3.20
2023-07-21T22:18:43.189Z,2.60
2023-07-21T22:21:10.007Z,3.78
2023-07-21T22:23:37.300Z,3.92
2023-07-21T22:26:06.606Z,7.60
2023-07-21T22:28:34.231Z,2.67
2023-07-21T22:31:00.865Z,5.72
2023-07-21T22:33:27.585Z,2.65
2023-07-21T22:35:54.903Z,2.88
2023-07-21T22:38:22.149Z,2.78
2023-07-21T22:40:48.878Z,3.03
2023-07-21T22:43:15.498Z,4.93
2023-07-21T22:45:42.195Z,3.97
2023-07-21T22:48:08.859Z,3.70
2023-07-21T22:50:35.462Z,3.88
2023-07-21T22:53:02.512Z,3.75
2023-07-21T22:55:29.174Z,2.97
2023-07-21T22:57:55.782Z,3.50
2023-07-21T23:00:22.441Z,4.85
2023-07-21T23:02:49.125Z,5.70
2023-07-21T23:05:15.935Z,4.07
2023-07-21T23:07:42.634Z,2.90
2023-07-21T23:10:09.457Z,4.15
2023-07-21T23:12:36.210Z,5.38
2023-07-21T23:15:02.871Z,5.35
2023-07-21T23:17:29.729Z,2.78
2023-07-21T23:19:56.400Z,4.90
2023-07-21T23:22:22.956Z,2.65
2023-07-21T23:24:49.676Z,3.47
2023-07-21T23:27:16.310Z,6.65
2023-07-21T23:29:42.921Z,2.80
2023-07-21T23:32:09.812Z,3.58
2023-07-21T23:34:36.489Z,2.72
2023-07-21T23:37:03.405Z,3.10
2023-07-21T23:39:30.020Z,2.55
2023-07-21T23:41:56.596Z,4.05
2023-07-21T23:44:23.155Z,2.97
2023-07-21T23:46:49.903Z,3.55
2023-07-21T23:49:16.864Z,2.97
2023-07-21T23:51:43.477Z,4.40
2023-07-21T23:54:10.109Z,3.55
2023-07-21T23:56:36.728Z,3.10
2023-07-21T23:59:03.340Z,7.38
